createdAt,value
2022-10-09T00:04:25.296Z,100900.69
2022-10-09T00:09:26.898Z,100900.31
2022-10-09T00:14:28.496Z,100900.91
2022-10-09T00:19:30.091Z,100895.81
2022-10-09T00:24:31.715Z,100890.81
2022-10-09T00:29:33.310Z,100882.06
2022-10-09T00:34:34.901Z,100891.69
2022-10-09T00:39:36.789Z,100897.25
2022-10-09T00:44:47.517Z,100904.31
2022-10-09T00:49:51.572Z,100894.75
2022-10-09T00:54:54.961Z,100901.72
2022-10-09T00:59:56.574Z,100900.94
2022-10-09T01:04:58.245Z,100894.88
2022-10-09T01:10:11.907Z,100888.22
2022-10-09T01:15:19.493Z,100888.16
2022-10-09T01:20:27.974Z,100883.09
2022-10-09T01:25:36.561Z,100876.16
2022-10-09T01:30:38.752Z,100872.28
2022-10-09T01:35:41.805Z,100881.84
2022-10-09T01:40:43.908Z,100867.50
2022-10-09T01:45:47.684Z,100879.63
2022-10-09T01:51:02.409Z,100883.88
2022-10-09T01:56:17.300Z,100881.66
2022-10-09T02:01:32.108Z,100889.38
2022-10-09T02:06:35.969Z,100881.41
2022-10-09T02:11:40.551Z,100880.03
2022-10-09T02:16:57.289Z,100874.09
2022-10-09T02:22:05.055Z,100860.00
2022-10-09T02:27:07.135Z,100871.84
2022-10-09T02:32:09.546Z,100866.19
2022-10-09T02:37:11.199Z,100863.63
2022-10-09T02:42:12.871Z,100871.94
2022-10-09T02:47:14.460Z,100861.94
2022-10-09T02:52:16.050Z,100858.59
2022-10-09T02:57:17.659Z,100865.97
2022-10-09T03:02:19.395Z,100850.00
2022-10-09T03:07:21.055Z,100858.19
2022-10-09T03:12:22.743Z,100861.59
2022-10-09T03:17:24.335Z,100867.31
2022-10-09T03:22:25.928Z,100856.63
2022-10-09T03:27:27.518Z,100866.53
2022-10-09T03:32:29.330Z,100867.22
2022-10-09T03:37:31.787Z,100866.78
2022-10-09T03:42:33.425Z,100862.97
2022-10-09T03:47:34.997Z,100859.72
2022-10-09T03:52:36.582Z,100857.69
2022-10-09T03:57:38.705Z,100860.84
2022-10-09T04:02:40.313Z,100858.72
2022-10-09T04:07:41.973Z,100864.00
2022-10-09T04:12:43.710Z,100859.56
2022-10-09T04:17:45.335Z,100855.88
2022-10-09T04:22:47.465Z,100861.97
2022-10-09T04:27:49.335Z,100856.47
2022-10-09T04:32:51.313Z,100857.78
2022-10-09T04:37:53.225Z,100854.28
2022-10-09T04:42:54.938Z,100852.00
2022-10-09T04:47:56.515Z,100856.78
2022-10-09T04:52:58.240Z,100854.00
2022-10-09T04:57:59.901Z,100842.22
2022-10-09T05:03:01.551Z,100852.88
2022-10-09T05:08:03.505Z,100844.47
2022-10-09T05:13:05.624Z,100844.88
2022-10-09T05:18:07.202Z,100841.31
2022-10-09T05:23:08.951Z,100843.41
2022-10-09T05:28:10.700Z,100845.09
2022-10-09T05:33:12.365Z,100843.41
2022-10-09T05:38:13.936Z,100849.25
2022-10-09T05:43:15.528Z,100849.66
2022-10-09T05:48:17.233Z,100851.69
2022-10-09T05:53:18.845Z,100852.19
2022-10-09T05:58:20.439Z,100854.31
2022-10-09T06:03:22.005Z,100842.69
2022-10-09T06:08:23.597Z,100844.41
2022-10-09T06:13:25.174Z,100848.19
2022-10-09T06:18:28.051Z,100843.47
2022-10-09T06:23:31.591Z,100846.34
2022-10-09T06:28:35.785Z,100852.19
2022-10-09T06:33:39.633Z,100853.47
2022-10-09T06:38:42.345Z,100854.44
2022-10-09T06:43:51.372Z,100857.63
2022-10-09T06:48:53.169Z,100863.47
2022-10-09T06:53:56.557Z,100858.00
2022-10-09T06:59:03.158Z,100859.38
2022-10-09T07:04:07.376Z,100862.44
2022-10-09T07:09:11.448Z,100860.28
2022-10-09T07:14:15.881Z,100858.84
2022-10-09T07:19:18.598Z,100858.50
2022-10-09T07:24:20.781Z,100869.97
2022-10-09T07:29:22.467Z,100864.59
2022-10-09T07:34:24.136Z,100869.94
2022-10-09T07:39:27.019Z,100864.22
2022-10-09T07:44:28.949Z,100875.25
2022-10-09T07:49:30.696Z,100868.81
2022-10-09T07:54:32.694Z,100860.19
2022-10-09T07:59:34.389Z,100862.72
2022-10-09T08:04:37.498Z,100858.03
2022-10-09T08:09:39.800Z,100860.31
2022-10-09T08:14:41.417Z,100855.88
2022-10-09T08:19:43.024Z,100855.28
2022-10-09T08:24:44.648Z,100843.59
2022-10-09T08:29:46.225Z,100838.66
2022-10-09T08:34:47.883Z,100841.16
2022-10-09T08:39:49.601Z,100834.59
2022-10-09T08:44:51.436Z,100835.28
2022-10-09T08:49:56.582Z,100830.03
2022-10-09T08:55:04.032Z,100826.16
2022-10-09T09:00:17.439Z,100821.28
2022-10-09T09:05:47.095Z,100820.91
2022-10-09T09:10:54.695Z,100808.06
2022-10-09T09:16:15.668Z,100804.91
2022-10-09T09:21:47.448Z,100792.50
2022-10-09T09:26:51.241Z,100787.44
2022-10-09T09:32:01.125Z,100778.59
2022-10-09T09:37:03.414Z,100770.63
2022-10-09T09:42:14.847Z,100761.91
2022-10-09T09:47:25.571Z,100755.88
2022-10-09T09:52:34.602Z,100739.16
2022-10-09T09:57:45.574Z,100732.81
2022-10-09T10:02:47.422Z,100725.47
2022-10-09T10:07:51.478Z,100705.50
2022-10-09T10:12:53.461Z,100697.03
2022-10-09T10:18:00.993Z,100684.00
2022-10-09T10:23:02.622Z,100677.97
2022-10-09T10:28:15.813Z,100672.41
2022-10-09T10:33:22.937Z,100653.47
2022-10-09T10:38:42.117Z,100648.59
2022-10-09T10:43:48.366Z,100632.88
2022-10-09T10:48:51.691Z,100627.34
2022-10-09T10:54:24.585Z,100621.53
2022-10-09T10:59:33.845Z,100614.97
2022-10-09T11:04:53.390Z,100611.94
2022-10-09T11:09:58.164Z,100600.19
2022-10-09T11:15:37.781Z,100586.69
2022-10-09T11:20:57.606Z,100580.59
2022-10-09T11:26:07.741Z,100578.59
2022-10-09T11:31:29.893Z,100560.22
2022-10-09T11:36:37.871Z,100554.09
2022-10-09T11:41:40.915Z,100541.91
2022-10-09T11:47:02.161Z,100536.75
2022-10-09T11:52:21.514Z,100522.66
2022-10-09T11:57:28.653Z,100511.94
2022-10-09T12:02:31.310Z,100505.75
2022-10-09T12:07:36.371Z,100502.53
2022-10-09T12:12:38.971Z,100488.84
2022-10-09T12:17:49.854Z,100478.09
2022-10-09T12:23:25.115Z,100473.16
2022-10-09T12:28:48.530Z,100462.50
2022-10-09T12:34:12.965Z,100446.59
2022-10-09T12:39:24.684Z,100447.91
2022-10-09T12:44:34.169Z,100446.59
2022-10-09T12:49:36.178Z,100439.09
2022-10-09T12:54:43.742Z,100436.38
2022-10-09T12:59:46.792Z,100419.81
2022-10-09T13:04:57.343Z,100406.31
2022-10-09T13:10:02.080Z,100404.66
2022-10-09T13:15:06.786Z,100406.00
2022-10-09T13:20:17.187Z,100399.28
2022-10-09T13:25:18.623Z,100384.78
2022-10-09T13:30:20.272Z,100379.34
2022-10-09T13:35:22.064Z,100374.03
2022-10-09T13:40:23.911Z,100366.47
2022-10-09T13:45:25.770Z,100353.19
2022-10-09T13:50:27.465Z,100344.06
2022-10-09T13:55:29.095Z,100332.97
2022-10-09T14:00:30.778Z,100325.06
2022-10-09T14:05:32.492Z,100322.97
2022-10-09T14:10:34.270Z,100310.72
2022-10-09T14:15:39.235Z,100307.50
2022-10-09T14:20:40.841Z,100297.75
2022-10-09T14:25:42.448Z,100298.94
2022-10-09T14:30:44.377Z,100292.94
2022-10-09T14:35:46.169Z,100280.47
2022-10-09T14:40:47.774Z,100280.47
2022-10-09T14:45:49.395Z,100272.09
2022-10-09T14:50:51.009Z,100257.09
2022-10-09T14:55:52.667Z,100246.53
2022-10-09T15:00:54.258Z,100234.66
2022-10-09T15:06:02.660Z,100231.16
2022-10-09T15:11:04.749Z,100227.56
2022-10-09T15:16:15.764Z,100220.59
2022-10-09T15:21:20.893Z,100218.91
2022-10-09T15:26:23.731Z,100214.09
2022-10-09T15:31:30.312Z,100202.75
2022-10-09T15:36:36.297Z,100203.31
2022-10-09T15:41:40.081Z,100200.44
2022-10-09T15:46:41.706Z,100195.28
2022-10-09T15:51:43.540Z,100191.06
2022-10-09T15:56:45.397Z,100192.44
2022-10-09T16:01:48.473Z,100186.44
2022-10-09T16:06:50.101Z,100183.81
2022-10-09T16:11:51.864Z,100181.78
2022-10-09T16:16:53.719Z,100179.94
2022-10-09T16:21:55.344Z,100191.78
2022-10-09T16:26:56.903Z,100187.28
2022-10-09T16:31:58.619Z,100183.50
2022-10-09T16:37:02.239Z,100186.19
2022-10-09T16:42:04.686Z,100180.66
2022-10-09T16:47:06.312Z,100179.13
2022-10-09T16:52:07.908Z,100181.19
2022-10-09T16:57:09.616Z,100177.06
2022-10-09T17:02:12.559Z,100183.34
2022-10-09T17:07:14.257Z,100188.31
2022-10-09T17:12:16.037Z,100186.72
2022-10-09T17:17:17.743Z,100189.56
2022-10-09T17:22:19.388Z,100190.72
2022-10-09T17:27:21.002Z,100194.25
2022-10-09T17:32:22.760Z,100193.53
2022-10-09T17:37:24.408Z,100202.72
2022-10-09T17:42:26.007Z,100208.81
2022-10-09T17:47:27.786Z,100202.59
2022-10-09T17:52:29.435Z,100201.56
2022-10-09T17:57:31.084Z,100193.03
2022-10-09T18:02:32.711Z,100192.50
2022-10-09T18:07:34.518Z,100194.69
2022-10-09T18:12:36.152Z,100182.63
2022-10-09T18:17:37.833Z,100176.97
2022-10-09T18:22:39.453Z,100178.47
2022-10-09T18:27:41.092Z,100178.09
2022-10-09T18:32:45.054Z,100174.84
2022-10-09T18:37:47.329Z,100176.56
2022-10-09T18:42:49.807Z,100172.81
2022-10-09T18:47:51.784Z,100171.59
2022-10-09T18:52:54.301Z,100158.22
2022-10-09T18:57:56.159Z,100157.16
2022-10-09T19:02:57.869Z,100154.16
2022-10-09T19:07:59.481Z,100160.56
2022-10-09T19:13:01.083Z,100148.38
2022-10-09T19:18:02.909Z,100152.56
2022-10-09T19:23:04.650Z,100148.56
2022-10-09T19:28:06.278Z,100156.59
2022-10-09T19:33:07.951Z,100150.53
2022-10-09T19:38:09.552Z,100146.59
2022-10-09T19:43:12.561Z,100144.28
2022-10-09T19:48:17.165Z,100142.03
2022-10-09T19:53:18.747Z,100142.50
2022-10-09T19:58:20.382Z,100143.91
2022-10-09T20:03:21.968Z,100140.63
2022-10-09T20:08:23.555Z,100140.31
2022-10-09T20:13:25.756Z,100132.06
2022-10-09T20:18:27.752Z,100131.97
2022-10-09T20:23:30.045Z,100133.16
2022-10-09T20:28:33.566Z,100134.13
2022-10-09T20:33:37.144Z,100129.44
2022-10-09T20:38:39.229Z,100131.09
2022-10-09T20:43:41.701Z,100133.06
2022-10-09T20:48:43.714Z,100119.13
2022-10-09T20:53:46.426Z,100122.19
2022-10-09T20:58:48.532Z,100122.78
2022-10-09T21:03:50.454Z,100116.41
2022-10-09T21:08:53.451Z,100121.91
2022-10-09T21:13:55.886Z,100126.09
2022-10-09T21:19:00.387Z,100121.47
2022-10-09T21:24:02.538Z,100119.25
2022-10-09T21:29:05.536Z,100121.47
2022-10-09T21:34:07.185Z,100113.38
2022-10-09T21:39:09.730Z,100118.66
2022-10-09T21:44:12.517Z,100115.94
2022-10-09T21:49:21.590Z,100113.09
2022-10-09T21:54:23.501Z,100111.22
2022-10-09T21:59:25.158Z,100106.81
2022-10-09T22:04:26.785Z,100105.94
2022-10-09T22:09:28.353Z,100103.53
2022-10-09T22:14:31.399Z,100098.03
2022-10-09T22:19:33.153Z,100101.09
2022-10-09T22:24:34.710Z,100100.53
2022-10-09T22:29:38.232Z,100094.91
2022-10-09T22:34:40.046Z,100085.81
2022-10-09T22:39:41.640Z,100084.72
2022-10-09T22:44:43.222Z,100082.00
2022-10-09T22:49:44.878Z,100080.19
2022-10-09T22:54:46.541Z,100079.22
2022-10-09T22:59:48.183Z,100074.50
2022-10-09T23:04:49.815Z,100075.16
2022-10-09T23:09:51.474Z,100072.63
2022-10-09T23:14:53.346Z,100073.53
2022-10-09T23:19:54.936Z,100068.69
2022-10-09T23:24:56.534Z,100059.41
2022-10-09T23:29:58.173Z,100060.34
2022-10-09T23:34:59.759Z,100067.03
2022-10-09T23:40:01.368Z,100069.63
2022-10-09T23:45:03.290Z,100058.47
2022-10-09T23:50:06.473Z,100050.81
2022-10-09T23:55:08.654Z,100051.28
